TimeMST,TemperatureF,Dew PointF,Humidity,Sea Level PressureIn,VisibilityMPH,Wind Direction,Wind SpeedMPH,Gust SpeedMPH,PrecipitationIn,Events,Conditions,WindDirDegrees,DateUTC
12:53 AM,21.9,12.0,66,29.87,10.0,Variable,4.6,-,N/A,,Clear,0,2013-02-17 07:53:00
1:53 AM,28.0,12.9,53,29.83,10.0,Variable,3.5,-,N/A,,Clear,0,2013-02-17 08:53:00
2:53 AM,30.0,14.0,51,29.78,10.0,SW,4.6,-,N/A,,Clear,220,2013-02-17 09:53:00
3:53 AM,28.0,12.0,51,29.75,10.0,Variable,5.8,-,N/A,,Clear,0,2013-02-17 10:53:00
4:53 AM,27.0,12.0,53,29.75,10.0,West,4.6,-,N/A,,Clear,270,2013-02-17 11:53:00
5:53 AM,21.9,10.9,63,29.77,10.0,Variable,3.5,-,N/A,,Clear,0,2013-02-17 12:53:00
6:53 AM,27.0,10.0,49,29.74,10.0,Calm,Calm,-,N/A,,Clear,0,2013-02-17 13:53:00
7:53 AM,34.0,12.9,42,29.69,10.0,SW,8.1,-,N/A,,Clear,220,2013-02-17 14:53:00
8:53 AM,25.0,12.9,60,29.73,10.0,North,8.1,-,N/A,,Clear,350,2013-02-17 15:53:00
9:53 AM,27.0,17.1,66,29.75,10.0,Calm,Calm,-,N/A,,Clear,0,2013-02-17 16:53:00
10:53 AM,32.0,19.0,59,29.74,10.0,SE,3.5,-,N/A,,Clear,140,2013-02-17 17:53:00
11:53 AM,39.9,8.1,27,29.68,10.0,NW,13.8,-,N/A,,Clear,310,2013-02-17 18:53:00
12:53 PM,37.9,19.0,47,29.72,10.0,NNW,13.8,-,N/A,,Clear,340,2013-02-17 19:53:00
1:53 PM,37.0,16.0,42,29.69,10.0,NNW,18.4,-,N/A,,Clear,340,2013-02-17 20:53:00
2:53 PM,37.0,14.0,39,29.70,10.0,NNW,15.0,-,N/A,,Clear,330,2013-02-17 21:53:00
3:53 PM,36.0,14.0,41,29.74,10.0,North,12.7,-,N/A,,Partly Cloudy,360,2013-02-17 22:53:00
4:53 PM,32.0,21.9,66,29.80,10.0,ENE,9.2,-,N/A,,Overcast,70,2013-02-17 23:53:00
5:53 PM,30.0,21.0,69,29.88,10.0,ENE,8.1,-,N/A,,Overcast,60,2013-02-18 00:53:00
6:19 PM,28.4,21.2,74,29.81,2.0,NNE,16.1,-,0.00,Snow,Light Snow,30,2013-02-18 01:19:00
6:26 PM,26.6,21.2,80,29.81,1.0,NE,15.0,24.2,0.00,Snow,Light Snow,40,2013-02-18 01:26:00
6:44 PM,26.6,21.2,80,29.83,3.0,NE,10.4,-,0.01,Snow,Light Snow,40,2013-02-18 01:44:00
6:53 PM,27.0,19.9,75,29.92,3.0,NNE,16.1,19.6,0.01,Snow,Light Snow,30,2013-02-18 01:53:00
7:02 PM,26.6,21.2,80,29.84,2.5,NE,11.5,-,0.00,Snow,Light Snow,40,2013-02-18 02:02:00
7:13 PM,24.8,21.2,86,29.84,2.5,NNE,9.2,-,0.00,Snow,Light Snow,30,2013-02-18 02:13:00
7:19 PM,24.8,21.2,86,29.85,3.0,NNE,9.2,-,0.00,Snow,Light Snow,30,2013-02-18 02:19:00
7:25 PM,24.8,21.2,86,29.85,2.5,NNE,6.9,-,0.00,Snow,Light Snow,30,2013-02-18 02:25:00
7:42 PM,24.8,23.0,93,29.86,1.5,North,3.5,-,0.00,Snow,Light Snow,10,2013-02-18 02:42:00
7:47 PM,24.8,23.0,93,29.86,0.8,NNE,4.6,-,0.00,Snow,Light Snow,30,2013-02-18 02:47:00
7:53 PM,25.0,23.0,92,29.93,0.5,NNE,6.9,-,0.01,Fog-Snow,Snow,30,2013-02-18 02:53:00
8:19 PM,24.8,23.0,93,29.86,1.2,West,4.6,-,0.04,Snow,Light Snow,270,2013-02-18 03:19:00
8:27 PM,24.8,23.0,93,29.87,0.8,Calm,Calm,-,0.04,Snow,Light Snow,0,2013-02-18 03:27:00
8:53 PM,25.0,23.0,92,29.98,1.2,Calm,Calm,-,0.05,Snow,Light Snow,0,2013-02-18 03:53:00
8:57 PM,24.8,21.2,86,29.87,2.0,WSW,3.5,-,0.00,Snow,Light Snow,240,2013-02-18 03:57:00
9:07 PM,24.8,21.2,86,29.87,6.0,SW,5.8,-,0.00,,Overcast,220,2013-02-18 04:07:00
9:16 PM,24.8,21.2,86,29.87,10.0,WSW,6.9,-,0.00,,Overcast,240,2013-02-18 04:16:00
9:53 PM,24.1,19.9,84,29.98,10.0,SW,4.6,-,0.00,,Overcast,230,2013-02-18 04:53:00
10:53 PM,19.9,14.0,78,29.99,10.0,WSW,10.4,-,N/A,,Clear,240,2013-02-18 05:53:00
11:53 PM,19.9,16.0,85,29.96,10.0,Calm,Calm,-,N/A,,Clear,0,2013-02-18 06:53:00